createdAt,value
2022-10-14T16:14:22.868Z,20.23
2022-10-14T16:16:59.149Z,20.70
2022-10-14T16:19:36.845Z,20.60
2022-10-14T16:22:17.589Z,19.55
2022-10-14T16:24:51.450Z,20.38
2022-10-14T16:27:27.539Z,20.00
2022-10-14T16:32:42.657Z,21.05
2022-10-14T16:35:15.311Z,15.27
2022-10-14T16:37:43.498Z,15.55
2022-10-14T16:40:14.294Z,20.42
2022-10-14T16:42:45.521Z,21.73
2022-10-14T16:45:21.498Z,23.00
2022-10-14T16:47:59.970Z,21.00
2022-10-14T16:50:30.827Z,20.00
2022-10-14T16:56:45.826Z,21.93
2022-10-14T16:59:51.990Z,24.50
2022-10-14T17:02:14.684Z,23.25
2022-10-14T17:04:55.292Z,23.05
2022-10-14T17:07:31.763Z,24.45
2022-10-14T17:10:11.994Z,19.25
2022-10-14T17:12:39.815Z,21.05
2022-10-14T17:15:39.384Z,23.02
2022-10-14T17:18:12.525Z,22.85
2022-10-14T17:20:41.163Z,23.25
2022-10-14T17:23:10.386Z,23.90
2022-10-14T17:25:46.190Z,23.23
2022-10-14T17:28:13.464Z,23.90
2022-10-14T17:30:40.681Z,24.38
2022-10-14T17:33:07.961Z,19.92
2022-10-14T17:35:35.154Z,21.23
2022-10-14T17:38:02.355Z,17.20
2022-10-14T17:40:33.598Z,11.60
2022-10-14T17:43:01.310Z,15.10
2022-10-14T17:45:30.530Z,16.03
2022-10-14T17:47:58.052Z,24.80
2022-10-14T17:50:27.050Z,25.25
2022-10-14T17:52:58.712Z,24.73
2022-10-14T17:55:25.982Z,26.20
2022-10-14T17:57:53.457Z,26.48
2022-10-14T18:00:21.473Z,25.63
2022-10-14T18:02:48.675Z,26.35
2022-10-14T18:05:16.423Z,27.55
2022-10-14T18:07:43.611Z,27.98
2022-10-14T18:10:11.221Z,28.73
2022-10-14T18:12:39.250Z,29.58
2022-10-14T18:15:07.594Z,28.48
2022-10-14T18:17:36.424Z,32.40
2022-10-14T18:20:05.388Z,29.50
2022-10-14T18:22:33.260Z,29.40
2022-10-14T18:25:00.601Z,29.80
2022-10-14T18:27:27.818Z,29.00
